createdAt,value
2018-09-03T00:01:33.367Z,2.30
2018-09-03T00:04:01.529Z,2.15
2018-09-03T00:06:29.406Z,1.57
2018-09-03T00:08:57.376Z,2.27
2018-09-03T00:11:25.140Z,2.23
2018-09-03T00:13:53.202Z,2.08
2018-09-03T00:16:20.592Z,2.05
2018-09-03T00:18:47.940Z,2.10
2018-09-03T00:21:15.591Z,2.33
2018-09-03T00:23:42.949Z,2.47
2018-09-03T00:26:10.393Z,3.08
2018-09-03T00:28:37.758Z,3.00
2018-09-03T00:31:12.081Z,2.87
2018-09-03T00:33:45.754Z,1.98
2018-09-03T00:37:19.695Z,2.30
2018-09-03T00:39:52.734Z,1.80
2018-09-03T00:42:26.709Z,2.30
2018-09-03T00:45:00.744Z,2.08
2018-09-03T00:47:28.131Z,2.57
2018-09-03T00:49:55.585Z,2.25
2018-09-03T00:52:22.988Z,1.97
2018-09-03T00:54:50.405Z,2.30
2018-09-03T00:57:18.393Z,2.55
2018-09-03T00:59:45.739Z,2.63
2018-09-03T01:02:14.284Z,3.62
2018-09-03T01:04:42.517Z,2.27
2018-09-03T01:07:10.226Z,2.50
2018-09-03T01:09:37.597Z,2.97
2018-09-03T01:12:05.007Z,2.37
2018-09-03T01:14:32.369Z,3.02
2018-09-03T01:17:00.805Z,2.90
2018-09-03T01:19:28.185Z,2.43
2018-09-03T01:21:55.614Z,2.47
2018-09-03T01:24:23.024Z,2.08
2018-09-03T01:26:50.842Z,2.23
2018-09-03T01:29:18.598Z,2.27
2018-09-03T01:31:45.946Z,3.50
2018-09-03T01:34:14.347Z,2.90
2018-09-03T01:36:41.727Z,3.50
2018-09-03T01:39:09.121Z,2.70
2018-09-03T01:41:37.418Z,2.40
2018-09-03T01:44:05.199Z,3.10
2018-09-03T01:46:32.561Z,3.90
2018-09-03T01:48:59.917Z,3.77
2018-09-03T01:51:27.294Z,2.90
2018-09-03T01:53:54.658Z,2.65
2018-09-03T01:56:22.587Z,2.37
2018-09-03T01:58:50.780Z,3.22
2018-09-03T02:01:18.483Z,3.20
2018-09-03T02:03:47.132Z,2.40
2018-09-03T02:06:14.502Z,3.47
2018-09-03T02:08:41.918Z,2.60
2018-09-03T02:11:09.309Z,2.90
2018-09-03T02:13:36.754Z,2.50
2018-09-03T02:16:04.533Z,3.83
2018-09-03T02:18:31.905Z,4.43
2018-09-03T02:20:59.337Z,2.80
2018-09-03T02:23:26.718Z,2.95
2018-09-03T02:25:55.010Z,2.93
2018-09-03T02:28:22.382Z,3.17
2018-09-03T02:30:49.716Z,3.27
2018-09-03T02:33:17.789Z,3.33
2018-09-03T02:35:45.189Z,3.30
2018-09-03T02:38:12.559Z,2.70
2018-09-03T02:40:39.954Z,4.03
2018-09-03T02:43:07.941Z,4.10
2018-09-03T02:45:35.681Z,2.43
2018-09-03T02:48:04.155Z,2.35
2018-09-03T02:50:32.443Z,3.42
2018-09-03T02:53:01.012Z,4.12
2018-09-03T02:55:29.874Z,2.87
2018-09-03T02:57:57.221Z,4.30
2018-09-03T03:00:26.523Z,3.33
2018-09-03T03:02:55.606Z,2.83
2018-09-03T03:05:22.998Z,3.00
2018-09-03T03:07:50.404Z,3.27
2018-09-03T03:10:18.019Z,5.22
2018-09-03T03:12:45.378Z,2.73
2018-09-03T03:15:12.908Z,3.87
2018-09-03T03:17:40.309Z,3.60
2018-09-03T03:20:07.707Z,3.17
2018-09-03T03:22:35.359Z,2.93
2018-09-03T03:25:03.336Z,4.00
2018-09-03T03:27:30.688Z,3.67
2018-09-03T03:29:58.086Z,2.73
2018-09-03T03:32:26.338Z,3.17
2018-09-03T03:34:54.617Z,4.53
2018-09-03T03:37:22.614Z,3.42
2018-09-03T03:39:50.778Z,3.67
2018-09-03T03:42:19.201Z,2.95
2018-09-03T03:44:47.145Z,2.90
2018-09-03T03:47:14.521Z,3.10
2018-09-03T03:49:41.931Z,4.63
2018-09-03T03:52:09.327Z,3.77
2018-09-03T03:54:37.100Z,2.58
2018-09-03T03:57:05.355Z,3.40
2018-09-03T03:59:32.731Z,3.43
2018-09-03T04:02:01.104Z,2.80
2018-09-03T04:04:29.049Z,3.50
2018-09-03T04:06:56.421Z,2.77
2018-09-03T04:09:23.848Z,3.70
2018-09-03T04:11:51.250Z,4.87
2018-09-03T04:14:18.637Z,4.43
2018-09-03T04:16:46.090Z,2.73
2018-09-03T04:19:14.148Z,3.22
2018-09-03T04:21:42.408Z,2.70
2018-09-03T04:24:09.762Z,4.17
2018-09-03T04:26:37.999Z,3.60
2018-09-03T04:29:06.337Z,3.87
2018-09-03T04:31:33.693Z,3.22
2018-09-03T04:34:01.954Z,4.65
2018-09-03T04:36:29.390Z,2.77
2018-09-03T04:38:56.767Z,2.93
2018-09-03T04:41:25.557Z,3.60
2018-09-03T04:43:53.300Z,3.10
2018-09-03T04:46:20.662Z,2.77
2018-09-03T04:48:48.122Z,3.60
2018-09-03T04:51:15.540Z,3.40
2018-09-03T04:53:43.194Z,4.92
2018-09-03T04:56:11.505Z,3.90
2018-09-03T04:58:38.895Z,4.37
2018-09-03T05:01:06.374Z,4.13
2018-09-03T05:03:34.450Z,3.73
2018-09-03T05:06:01.888Z,2.60
2018-09-03T05:08:29.248Z,3.10
2018-09-03T05:10:57.519Z,3.15
2018-09-03T05:13:25.765Z,4.33
2018-09-03T05:15:53.152Z,3.80
2018-09-03T05:18:21.338Z,3.67
2018-09-03T05:20:50.286Z,4.50
2018-09-03T05:23:17.734Z,3.08
2018-09-03T05:25:45.101Z,2.93
2018-09-03T05:28:13.050Z,3.40
2018-09-03T05:30:41.379Z,4.13
2018-09-03T05:33:09.270Z,4.22
2018-09-03T05:35:37.503Z,6.28
2018-09-03T05:38:05.034Z,5.77
2018-09-03T05:40:32.387Z,5.47
2018-09-03T05:43:00.452Z,5.63
2018-09-03T05:45:28.318Z,5.97
2018-09-03T05:47:56.098Z,5.73
2018-09-03T05:50:23.635Z,5.87
2018-09-03T05:52:50.842Z,6.53
2018-09-03T05:55:18.947Z,6.20
2018-09-03T05:57:46.318Z,7.17
2018-09-03T06:00:13.718Z,6.50
2018-09-03T06:02:42.061Z,6.42
2018-09-03T06:05:09.425Z,6.70
2018-09-03T06:07:38.807Z,6.50
2018-09-03T06:10:06.260Z,6.95
2018-09-03T06:12:34.091Z,6.67
2018-09-03T06:15:02.269Z,6.55
2018-09-03T06:17:29.635Z,6.63
2018-09-03T06:19:57.963Z,7.27
2018-09-03T06:22:25.342Z,5.57
2018-09-03T06:24:52.702Z,7.07
2018-09-03T06:27:20.107Z,5.73
2018-09-03T06:29:47.457Z,5.13
2018-09-03T06:32:14.926Z,5.45
2018-09-03T06:34:43.530Z,4.77
2018-09-03T06:37:10.914Z,5.15
2018-09-03T06:39:38.346Z,5.92
2018-09-03T06:42:07.130Z,5.30
2018-09-03T06:44:35.718Z,5.58
2018-09-03T06:47:03.129Z,5.53
2018-09-03T06:49:30.489Z,5.93
2018-09-03T06:51:57.886Z,5.83
2018-09-03T06:54:25.321Z,5.20
2018-09-03T06:56:53.157Z,6.10
2018-09-03T06:59:20.705Z,6.93
2018-09-03T07:01:48.826Z,7.77
2018-09-03T07:04:16.696Z,8.17
2018-09-03T07:06:44.976Z,7.72
2018-09-03T07:09:12.322Z,7.80
2018-09-03T07:11:40.254Z,8.03
2018-09-03T07:14:08.217Z,7.53
2018-09-03T07:16:36.209Z,5.63
2018-09-03T07:19:04.499Z,7.65
2018-09-03T07:21:31.978Z,7.40
2018-09-03T07:23:59.343Z,7.57
2018-09-03T07:26:26.774Z,6.93
2018-09-03T07:28:54.237Z,7.70
2018-09-03T07:31:22.621Z,7.03
2018-09-03T07:33:50.678Z,8.53
2018-09-03T07:36:18.747Z,8.23
2018-09-03T07:38:46.106Z,8.20
2018-09-03T07:41:13.475Z,8.53
2018-09-03T07:43:41.246Z,7.80
2018-09-03T07:46:08.593Z,8.20
2018-09-03T07:48:36.013Z,8.53
2018-09-03T07:51:03.419Z,8.40
2018-09-03T07:53:31.478Z,8.58
2018-09-03T07:55:59.649Z,8.07
2018-09-03T07:58:27.649Z,8.33
2018-09-03T08:00:55.970Z,7.92
2018-09-03T08:03:23.958Z,9.40
2018-09-03T08:05:51.550Z,5.77
2018-09-03T08:08:18.933Z,7.03
2018-09-03T08:10:46.922Z,8.00
2018-09-03T08:13:20.768Z,7.20
2018-09-03T08:15:48.117Z,9.15
2018-09-03T08:18:15.502Z,6.63
2018-09-03T08:20:43.438Z,8.70
2018-09-03T08:23:10.792Z,10.03
2018-09-03T08:25:38.157Z,9.28
2018-09-03T08:28:05.746Z,11.43
2018-09-03T08:30:33.114Z,9.80
2018-09-03T08:33:00.770Z,11.65
2018-09-03T08:35:28.841Z,8.25
2018-09-03T08:37:56.150Z,9.87
2018-09-03T08:40:23.531Z,9.93
2018-09-03T08:42:51.406Z,10.10
2018-09-03T08:45:19.435Z,10.23
2018-09-03T08:47:47.461Z,10.63
2018-09-03T08:50:15.449Z,9.87
2018-09-03T08:52:42.805Z,10.18
2018-09-03T08:55:10.189Z,10.10
2018-09-03T08:57:38.268Z,12.10
2018-09-03T09:00:06.143Z,12.33
2018-09-03T09:02:34.454Z,11.03
2018-09-03T09:05:02.158Z,10.23
2018-09-03T09:07:29.562Z,10.07
2018-09-03T09:09:57.609Z,8.60
2018-09-03T09:12:24.987Z,9.43
2018-09-03T09:14:52.337Z,8.78
2018-09-03T09:17:19.710Z,9.73
2018-09-03T09:19:47.082Z,11.03
2018-09-03T09:22:14.515Z,8.78
2018-09-03T09:24:42.158Z,10.10
2018-09-03T09:27:09.529Z,8.35
2018-09-03T09:29:36.895Z,8.50
2018-09-03T09:32:04.362Z,9.18
2018-09-03T09:34:32.874Z,8.45
2018-09-03T09:37:01.243Z,9.75
2018-09-03T09:39:28.605Z,8.25
2018-09-03T09:41:56.360Z,8.30
2018-09-03T09:44:24.476Z,9.30
2018-09-03T09:46:51.838Z,10.18
2018-09-03T09:49:20.234Z,9.25
2018-09-03T09:51:47.626Z,8.73
2018-09-03T09:54:15.592Z,9.30
2018-09-03T09:56:42.942Z,8.43
2018-09-03T09:59:10.662Z,7.67
2018-09-03T10:01:38.890Z,7.90
2018-09-03T10:04:06.941Z,7.72
2018-09-03T10:06:35.314Z,8.35
2018-09-03T10:09:04.413Z,8.90
2018-09-03T10:11:31.773Z,7.78
2018-09-03T10:13:59.146Z,9.45
2018-09-03T10:16:26.526Z,9.03
2018-09-03T10:18:53.966Z,8.60
2018-09-03T10:21:22.112Z,8.58
2018-09-03T10:23:49.482Z,8.83
2018-09-03T10:26:17.202Z,8.93
2018-09-03T10:28:44.674Z,9.25
2018-09-03T10:31:13.254Z,8.65
2018-09-03T10:33:41.375Z,8.60
2018-09-03T10:36:08.766Z,9.58
2018-09-03T10:38:36.151Z,8.95
2018-09-03T10:41:05.042Z,8.65
2018-09-03T10:43:33.243Z,8.68
2018-09-03T10:46:00.618Z,8.93
2018-09-03T10:48:29.582Z,9.48
2018-09-03T10:50:57.007Z,8.35
2018-09-03T10:53:24.406Z,9.03
2018-09-03T10:55:51.810Z,9.08
2018-09-03T10:58:19.170Z,8.80
2018-09-03T11:00:47.391Z,9.48
2018-09-03T11:03:15.336Z,9.50
2018-09-03T11:05:43.052Z,9.05
2018-09-03T11:08:10.434Z,9.18
2018-09-03T11:10:38.390Z,9.28
2018-09-03T11:13:05.786Z,9.60
2018-09-03T11:15:33.186Z,9.15
2018-09-03T11:18:01.342Z,9.73
2018-09-03T11:20:29.498Z,9.90
2018-09-03T11:22:57.306Z,10.25
2018-09-03T11:25:25.859Z,10.50
2018-09-03T11:27:54.017Z,10.43
2018-09-03T11:30:21.692Z,10.35
2018-09-03T11:32:56.529Z,10.98
2018-09-03T11:35:25.189Z,11.10
2018-09-03T11:37:52.549Z,10.08
2018-09-03T11:40:20.789Z,9.83
2018-09-03T11:42:49.101Z,10.65
2018-09-03T11:45:18.170Z,9.23
2018-09-03T11:47:45.985Z,10.70
2018-09-03T11:50:14.440Z,9.85
2018-09-03T11:52:41.818Z,9.53
2018-09-03T11:55:09.479Z,10.20
2018-09-03T11:57:36.999Z,9.60
2018-09-03T12:00:05.051Z,10.13
2018-09-03T12:02:33.124Z,10.00
2018-09-03T12:05:01.139Z,10.58
2018-09-03T12:07:28.547Z,10.23
2018-09-03T12:09:55.918Z,9.70
2018-09-03T12:12:23.323Z,9.83
2018-09-03T12:14:54.542Z,9.98
2018-09-03T12:17:21.954Z,9.63
2018-09-03T12:19:49.867Z,10.05
2018-09-03T12:22:17.249Z,10.88
2018-09-03T12:24:44.589Z,10.10
2018-09-03T12:27:12.491Z,11.03
2018-09-03T12:29:40.457Z,10.75
2018-09-03T12:32:07.876Z,9.78
2018-09-03T12:34:36.416Z,9.03
2018-09-03T12:37:04.680Z,11.12
2018-09-03T12:39:31.992Z,9.93
2018-09-03T12:42:00.138Z,10.93
2018-09-03T12:44:29.454Z,9.95
2018-09-03T12:46:56.834Z,9.65
2018-09-03T12:49:24.213Z,10.20
2018-09-03T12:51:51.615Z,9.90
2018-09-03T12:54:19.543Z,10.55
2018-09-03T12:56:46.918Z,10.30
2018-09-03T12:59:15.525Z,10.18
2018-09-03T13:01:44.226Z,10.68
2018-09-03T13:04:12.215Z,10.23
2018-09-03T13:06:40.452Z,10.20
2018-09-03T13:09:08.549Z,10.13
2018-09-03T13:11:37.315Z,10.70
2018-09-03T13:14:04.720Z,10.20
2018-09-03T13:16:32.090Z,10.05
2018-09-03T13:19:00.667Z,8.85
2018-09-03T13:21:28.617Z,9.78
2018-09-03T13:23:56.830Z,9.10
2018-09-03T13:26:24.209Z,9.45
2018-09-03T13:28:51.562Z,8.80
2018-09-03T13:31:18.939Z,8.73
2018-09-03T13:33:47.261Z,9.13
2018-09-03T13:36:14.657Z,9.75
2018-09-03T13:38:41.989Z,9.75
2018-09-03T13:41:09.437Z,9.38
2018-09-03T13:43:37.350Z,9.43
2018-09-03T13:46:04.890Z,9.15
2018-09-03T13:48:32.283Z,8.88
2018-09-03T13:50:59.746Z,9.20
2018-09-03T13:53:27.143Z,9.08
2018-09-03T13:55:55.425Z,9.03
2018-09-03T13:58:23.705Z,9.68
2018-09-03T14:00:51.055Z,10.05
2018-09-03T14:03:19.038Z,9.23
2018-09-03T14:05:47.902Z,9.35
2018-09-03T14:08:15.674Z,9.78
2018-09-03T14:10:43.049Z,9.73
2018-09-03T14:13:10.459Z,9.48
2018-09-03T14:15:38.454Z,10.63
2018-09-03T14:18:06.900Z,10.15
2018-09-03T14:20:34.290Z,9.28
2018-09-03T14:23:01.655Z,8.83
2018-09-03T14:25:29.047Z,9.13
2018-09-03T14:27:56.426Z,9.53
2018-09-03T14:30:24.222Z,8.73
2018-09-03T14:32:51.575Z,9.73
2018-09-03T14:35:20.101Z,9.45
2018-09-03T14:37:48.103Z,9.08
2018-09-03T14:40:15.473Z,8.98
2018-09-03T14:42:43.535Z,8.75
2018-09-03T14:45:11.757Z,9.00
2018-09-03T14:47:39.394Z,9.70
2018-09-03T14:50:06.756Z,9.25
2018-09-03T14:52:34.522Z,8.33
2018-09-03T14:55:02.846Z,8.95
2018-09-03T14:57:30.627Z,9.10
2018-09-03T14:59:58.065Z,8.80
2018-09-03T15:02:26.503Z,9.23
2018-09-03T15:04:54.479Z,8.18
2018-09-03T15:07:21.881Z,9.38
2018-09-03T15:09:50.313Z,8.63
2018-09-03T15:12:17.707Z,9.20
2018-09-03T15:14:45.074Z,9.10
2018-09-03T15:17:12.751Z,9.15
2018-09-03T15:19:41.469Z,8.95
2018-09-03T15:22:08.864Z,9.15
2018-09-03T15:24:36.230Z,9.15
2018-09-03T15:27:03.649Z,10.03
2018-09-03T15:29:31.703Z,9.18
2018-09-03T15:31:59.947Z,9.20
2018-09-03T15:34:27.966Z,9.45
2018-09-03T15:36:56.534Z,9.95
2018-09-03T15:39:23.913Z,8.50
2018-09-03T15:41:51.757Z,9.25
2018-09-03T15:44:19.828Z,9.65
2018-09-03T15:46:48.122Z,9.43
2018-09-03T15:49:15.481Z,9.45
2018-09-03T15:51:43.628Z,8.78
2018-09-03T15:54:11.129Z,8.93
2018-09-03T15:56:38.375Z,9.25
2018-09-03T15:59:05.795Z,9.08
2018-09-03T16:01:34.179Z,9.83
2018-09-03T16:04:03.125Z,9.23
2018-09-03T16:06:30.539Z,10.08
2018-09-03T16:08:57.966Z,9.93
2018-09-03T16:11:25.314Z,9.58
2018-09-03T16:13:52.688Z,9.38
2018-09-03T16:16:20.182Z,9.13
2018-09-03T16:18:48.406Z,9.38
2018-09-03T16:21:16.594Z,8.95
2018-09-03T16:23:43.952Z,8.55
2018-09-03T16:26:11.326Z,9.45
2018-09-03T16:28:38.719Z,8.50
2018-09-03T16:31:06.668Z,8.60
2018-09-03T16:33:34.867Z,8.75
2018-09-03T16:36:03.207Z,8.73
2018-09-03T16:38:31.884Z,8.63
2018-09-03T16:40:59.278Z,8.58
2018-09-03T16:43:27.198Z,9.00
2018-09-03T16:45:54.599Z,7.95
2018-09-03T16:48:21.949Z,9.38
2018-09-03T16:50:49.645Z,8.00
2018-09-03T16:53:17.014Z,8.78
2018-09-03T16:55:44.396Z,7.55
2018-09-03T16:58:11.891Z,7.62
2018-09-03T17:00:39.885Z,7.85
2018-09-03T17:03:07.748Z,7.53
2018-09-03T17:05:35.165Z,7.08
2018-09-03T17:08:03.255Z,7.10
2018-09-03T17:10:30.554Z,7.22
2018-09-03T17:12:57.966Z,7.28
2018-09-03T17:15:25.952Z,7.95
2018-09-03T17:17:54.357Z,7.47
2018-09-03T17:20:21.761Z,7.30
2018-09-03T17:22:49.426Z,7.05
2018-09-03T17:25:16.795Z,7.22
2018-09-03T17:27:44.590Z,8.20
2018-09-03T17:30:12.363Z,7.58
2018-09-03T17:32:40.836Z,7.92
2018-09-03T17:35:08.911Z,7.28
2018-09-03T17:37:36.303Z,7.95
2018-09-03T17:40:03.760Z,8.45
2018-09-03T17:42:31.746Z,7.15
2018-09-03T17:44:59.787Z,7.58
2018-09-03T17:47:28.014Z,7.03
2018-09-03T17:49:55.421Z,6.95
2018-09-03T17:52:23.608Z,7.37
2018-09-03T17:54:51.004Z,7.10
2018-09-03T17:57:18.761Z,7.90
2018-09-03T17:59:46.171Z,6.72
2018-09-03T18:02:14.458Z,6.95
2018-09-03T18:04:42.505Z,6.95
2018-09-03T18:07:10.462Z,5.90
2018-09-03T18:09:37.950Z,7.33
2018-09-03T18:12:06.015Z,7.17
2018-09-03T18:14:33.467Z,7.05
2018-09-03T18:17:01.563Z,6.55
2018-09-03T18:19:29.602Z,6.58
2018-09-03T18:21:57.460Z,7.22
2018-09-03T18:24:25.911Z,7.28
2018-09-03T18:26:53.502Z,7.03
2018-09-03T18:29:21.909Z,6.80
2018-09-03T18:31:49.400Z,7.17
2018-09-03T18:34:17.399Z,6.60
2018-09-03T18:36:45.191Z,6.60
2018-09-03T18:39:14.302Z,6.65
2018-09-03T18:41:42.666Z,6.30
2018-09-03T18:44:10.515Z,6.92
2018-09-03T18:46:38.460Z,7.20
2018-09-03T18:49:06.914Z,7.10
2018-09-03T18:51:34.445Z,6.70
2018-09-03T18:54:02.459Z,6.92
2018-09-03T18:56:30.689Z,6.95
2018-09-03T18:58:58.874Z,6.30
2018-09-03T19:01:26.969Z,7.33
2018-09-03T19:03:55.105Z,6.62
2018-09-03T19:06:22.973Z,7.40
2018-09-03T19:08:51.474Z,6.42
2018-09-03T19:11:18.917Z,7.20
2018-09-03T19:13:46.775Z,6.75
2018-09-03T19:16:14.448Z,6.95
2018-09-03T19:18:43.124Z,7.65
2018-09-03T19:21:10.937Z,7.50
2018-09-03T19:23:39.046Z,6.55
2018-09-03T19:26:06.499Z,6.97
2018-09-03T19:28:34.399Z,7.22
2018-09-03T19:31:02.798Z,6.55
2018-09-03T19:33:31.236Z,7.17
2018-09-03T19:35:58.748Z,7.05
2018-09-03T19:38:27.623Z,6.67
2018-09-03T19:40:55.134Z,7.47
2018-09-03T19:43:23.308Z,7.92
2018-09-03T19:45:51.010Z,6.72
2018-09-03T19:48:18.447Z,7.28
2018-09-03T19:50:47.040Z,7.15
2018-09-03T19:53:14.525Z,7.35
2018-09-03T19:55:41.989Z,7.55
2018-09-03T19:58:10.491Z,7.45
2018-09-03T20:00:38.573Z,7.78
2018-09-03T20:03:06.519Z,7.30
2018-09-03T20:05:33.978Z,7.95
2018-09-03T20:08:01.891Z,8.80
2018-09-03T20:10:29.361Z,9.53
2018-09-03T20:12:56.806Z,8.58
2018-09-03T20:15:24.983Z,9.58
2018-09-03T20:17:53.539Z,8.10
2018-09-03T20:20:21.302Z,11.38
2018-09-03T20:22:49.355Z,9.05
2018-09-03T20:25:16.760Z,7.92
2018-09-03T20:27:44.183Z,8.05
2018-09-03T20:30:12.019Z,9.08
2018-09-03T20:32:40.030Z,9.80
2018-09-03T20:35:08.026Z,9.95
2018-09-03T20:37:36.802Z,10.75
2018-09-03T20:40:04.832Z,10.53
2018-09-03T20:42:34.000Z,10.90
2018-09-03T20:45:02.130Z,11.68
2018-09-03T20:47:29.813Z,10.78
2018-09-03T20:49:58.548Z,10.32
2018-09-03T20:52:26.561Z,11.75
2018-09-03T20:54:54.349Z,11.40
2018-09-03T20:57:22.385Z,11.15
2018-09-03T20:59:49.796Z,11.93
2018-09-03T21:02:17.857Z,12.18
2018-09-03T21:04:45.875Z,12.63
2018-09-03T21:07:13.511Z,12.93
2018-09-03T21:09:41.611Z,13.73
2018-09-03T21:12:10.401Z,12.78
2018-09-03T21:14:37.875Z,13.68
2018-09-03T21:17:06.161Z,13.68
2018-09-03T21:19:34.235Z,14.05
2018-09-03T21:22:02.430Z,15.00
2018-09-03T21:24:30.310Z,14.58
2018-09-03T21:26:57.714Z,15.70
2018-09-03T21:29:25.741Z,12.10
2018-09-03T21:31:53.185Z,15.28
2018-09-03T21:34:21.131Z,14.60
2018-09-03T21:36:50.212Z,15.40
2018-09-03T21:39:18.362Z,16.32
2018-09-03T21:41:46.746Z,15.88
2018-09-03T21:44:14.844Z,15.15
2018-09-03T21:46:43.011Z,16.32
2018-09-03T21:49:11.137Z,15.55
2018-09-03T21:51:38.585Z,15.88
2018-09-03T21:54:05.990Z,15.77
2018-09-03T21:56:34.246Z,15.03
2018-09-03T21:59:02.292Z,14.50
2018-09-03T22:01:30.605Z,15.32
2018-09-03T22:03:58.675Z,16.02
2018-09-03T22:06:26.502Z,16.20
2018-09-03T22:08:53.889Z,15.88
2018-09-03T22:11:21.280Z,17.02
2018-09-03T22:13:48.654Z,15.32
2018-09-03T22:16:16.095Z,14.73
2018-09-03T22:18:45.450Z,13.93
2018-09-03T22:21:13.457Z,15.28
2018-09-03T22:23:41.202Z,15.83
2018-09-03T22:26:08.590Z,15.83
2018-09-03T22:28:36.058Z,15.45
2018-09-03T22:31:04.050Z,15.10
2018-09-03T22:33:31.913Z,14.63
2018-09-03T22:36:00.310Z,15.40
2018-09-03T22:38:27.689Z,14.87
2018-09-03T22:40:55.374Z,15.23
2018-09-03T22:43:24.409Z,15.32
2018-09-03T22:45:52.090Z,15.23
2018-09-03T22:48:19.473Z,16.82
2018-09-03T22:50:47.723Z,15.80
2018-09-03T22:53:15.108Z,16.07
2018-09-03T22:55:43.118Z,15.10
2018-09-03T22:58:10.574Z,14.43
2018-09-03T23:00:38.016Z,15.70
2018-09-03T23:03:05.827Z,15.13
2018-09-03T23:05:33.226Z,15.67
2018-09-03T23:08:01.125Z,16.10
2018-09-03T23:10:29.204Z,16.57
2018-09-03T23:12:57.349Z,16.90
2018-09-03T23:15:24.949Z,14.35
2018-09-03T23:17:53.533Z,15.20
2018-09-03T23:20:20.940Z,14.93
2018-09-03T23:22:49.561Z,15.53
2018-09-03T23:25:17.349Z,14.95
2018-09-03T23:27:44.711Z,14.98
2018-09-03T23:30:12.382Z,14.78
2018-09-03T23:32:40.620Z,15.03
2018-09-03T23:35:08.631Z,14.07
2018-09-03T23:37:36.014Z,13.85
2018-09-03T23:40:03.430Z,14.13
2018-09-03T23:42:32.613Z,14.60
2018-09-03T23:45:00.886Z,15.13
2018-09-03T23:47:28.299Z,14.65
2018-09-03T23:49:56.224Z,15.50
2018-09-03T23:52:23.969Z,15.43
2018-09-03T23:54:51.694Z,14.57
2018-09-03T23:57:19.781Z,15.83
2018-09-03T23:59:47.154Z,15.03
